Time;durP1;ratioP1;P1;durP2;ratioP2;P2;SDS_P1;SDS_P2;PMS_P1;PMS_P2;Temp;Humidity;BMP_temperature;BMP_pressure;BME280_temperature;BME280_humidity;BME280_pressure;Samples;Min_cycle;Max_cycle;Signal;HPM_P1;HPM_P2
2023/05/31 00:01:54;;;;;;;6.85;2.78;;;;;;;;;;4963634;28;20530;-59
2023/05/31 00:04:24;;;;;;;4.95;2.28;;;;;;;;;;4954376;28;20054;-60
2023/05/31 00:06:54;;;;;;;6.30;2.65;;;;;;;;;;4931243;28;20062;-59
2023/05/31 00:09:25;;;;;;;6.43;2.95;;;;;;;;;;4987813;28;20055;-60
2023/05/31 00:11:55;;;;;;;7.50;2.88;;;;;;;;;;4980212;28;20130;-60
2023/05/31 00:14:26;;;;;;;7.10;2.97;;;;;;;;;;4987921;28;20062;-59
2023/05/31 00:16:56;;;;;;;5.30;2.22;;;;;;;;;;4967197;28;20046;-60
2023/05/31 00:19:29;;;;;;;4.65;2.20;;;;;;;;;;4998989;28;20408;-62
2023/05/31 00:22:00;;;;;;;4.45;1.80;;;;;;;;;;5011233;28;20062;-61
2023/05/31 00:24:30;;;;;;;5.47;1.77;;;;;;;;;;5008847;28;20054;-60
2023/05/31 00:27:00;;;;;;;4.72;2.13;;;;;;;;;;5048317;28;20052;-60
2023/05/31 00:29:30;;;;;;;3.80;2.22;;;;;;;;;;5080867;28;20044;-61
2023/05/31 00:32:02;;;;;;;4.70;2.10;;;;;;;;;;5062923;28;20037;-60
2023/05/31 00:34:32;;;;;;;5.03;1.70;;;;;;;;;;5046558;28;20101;-62
2023/05/31 00:37:02;;;;;;;4.68;1.67;;;;;;;;;;5079921;28;20499;-60
2023/05/31 00:39:36;;;;;;;4.82;1.90;;;;;;;;;;5043153;28;20041;-62
2023/05/31 00:42:07;;;;;;;5.80;2.05;;;;;;;;;;5090121;28;20044;-61
2023/05/31 00:44:37;;;;;;;4.68;1.75;;;;;;;;;;5068081;28;20416;-62
2023/05/31 00:47:08;;;;;;;6.07;1.90;;;;;;;;;;5068634;28;20393;-61
2023/05/31 00:49:38;;;;;;;3.70;1.88;;;;;;;;;;5068003;28;20160;-62
2023/05/31 00:52:10;;;;;;;5.45;1.90;;;;;;;;;;5068271;28;20076;-61
2023/05/31 00:54:40;;;;;;;4.22;1.63;;;;;;;;;;5068189;28;20057;-62
2023/05/31 00:57:11;;;;;;;3.95;2.05;;;;;;;;;;5035288;28;20432;-62
2023/05/31 00:59:41;;;;;;;4.53;1.80;;;;;;;;;;5069113;28;20048;-62
2023/05/31 01:02:11;;;;;;;5.95;2.42;;;;;;;;;;5015158;28;20408;-62
2023/05/31 01:04:42;;;;;;;4.32;2.08;;;;;;;;;;5031941;28;20065;-61
2023/05/31 01:07:12;;;;;;;4.50;2.03;;;;;;;;;;5012105;28;20049;-62
2023/05/31 01:09:42;;;;;;;4.57;2.20;;;;;;;;;;4963531;28;20101;-62
2023/05/31 01:12:31;;;;;;;3.97;1.88;;;;;;;;;;5012158;28;20065;-61
2023/05/31 01:15:17;;;;;;;3.97;1.60;;;;;;;;;;5012007;28;20421;-62
2023/05/31 01:18:19;;;;;;;3.28;1.67;;;;;;;;;;4963393;28;20065;-61
2023/05/31 01:20:51;;;;;;;3.08;1.52;;;;;;;;;;4988812;28;20062;-63
2023/05/31 01:23:39;;;;;;;5.57;2.00;;;;;;;;;;5006132;28;20490;-61
2023/05/31 01:26:44;;;;;;;5.18;2.40;;;;;;;;;;5003972;28;20043;-62
2023/05/31 01:29:18;;;;;;;;;;;;;;;;;;4953687;29;20051;-60
2023/05/31 01:31:51;;;;;;;7.18;2.50;;;;;;;;;;4953176;29;19933;-61
2023/05/31 01:34:22;;;;;;;4.70;1.90;;;;;;;;;;4953551;29;20063;-61
2023/05/31 01:36:52;;;;;;;4.75;2.00;;;;;;;;;;4952419;28;20066;-62
2023/05/31 01:39:23;;;;;;;5.95;2.25;;;;;;;;;;4952778;28;20131;-61
2023/05/31 01:41:54;;;;;;;6.40;2.10;;;;;;;;;;4952949;28;20060;-62
2023/05/31 01:44:25;;;;;;;5.68;1.85;;;;;;;;;;4968551;28;20066;-61
2023/05/31 01:46:55;;;;;;;3.83;1.75;;;;;;;;;;4936333;29;20055;-61
2023/05/31 01:49:26;;;;;;;4.20;2.00;;;;;;;;;;4952663;28;20063;-62
2023/05/31 01:51:58;;;;;;;5.07;2.10;;;;;;;;;;4952800;28;20055;-61
2023/05/31 01:54:29;;;;;;;5.68;2.25;;;;;;;;;;4914622;29;20059;-61
2023/05/31 01:57:02;;;;;;;4.63;1.80;;;;;;;;;;4882885;29;20056;-61
2023/05/31 01:59:35;;;;;;;4.45;2.20;;;;;;;;;;4915258;29;20063;-62
2023/05/31 02:02:08;;;;;;;4.43;1.65;;;;;;;;;;4933379;29;20062;-62
2023/05/31 02:04:39;;;;;;;9.00;2.00;;;;;;;;;;4898744;29;20060;-62
2023/05/31 02:07:12;;;;;;;3.08;1.58;;;;;;;;;;4913915;29;20052;-62
2023/05/31 02:09:43;;;;;;;5.13;1.95;;;;;;;;;;4895357;29;20563;-62
2023/05/31 02:12:13;;;;;;;3.63;2.00;;;;;;;;;;4894383;29;20049;-61
2023/05/31 02:14:43;;;;;;;6.63;1.90;;;;;;;;;;4879766;29;20141;-61
2023/05/31 02:17:16;;;;;;;3.10;1.58;;;;;;;;;;4895182;29;20057;-62
2023/05/31 02:19:46;;;;;;;2.72;1.52;;;;;;;;;;4853452;29;20053;-61
2023/05/31 02:22:18;;;;;;;4.75;1.90;;;;;;;;;;4863865;29;20048;-61
2023/05/31 02:24:49;;;;;;;4.15;1.92;;;;;;;;;;4884299;29;20057;-62
2023/05/31 02:27:22;;;;;;;6.13;1.75;;;;;;;;;;4894915;29;20052;-62
2023/05/31 02:29:52;;;;;;;3.63;1.90;;;;;;;;;;4894920;29;20175;-62
2023/05/31 02:32:22;;;;;;;5.13;2.35;;;;;;;;;;4905696;29;20204;-63
2023/05/31 02:34:52;;;;;;;3.22;1.73;;;;;;;;;;4903014;29;20053;-62
2023/05/31 02:37:23;;;;;;;4.28;1.85;;;;;;;;;;4906749;29;20059;-62
2023/05/31 02:39:53;;;;;;;6.85;1.80;;;;;;;;;;4913841;29;20536;-62
2023/05/31 02:42:23;;;;;;;6.00;1.88;;;;;;;;;;4894612;29;20060;-62
2023/05/31 02:44:53;;;;;;;3.58;1.65;;;;;;;;;;4894835;29;20052;-62
2023/05/31 02:47:23;;;;;;;3.88;1.67;;;;;;;;;;4913587;29;20318;-63
2023/05/31 02:49:54;;;;;;;4.35;2.03;;;;;;;;;;4867220;29;20064;-62
2023/05/31 02:52:26;;;;;;;5.22;1.70;;;;;;;;;;4894516;29;20060;-62
2023/05/31 02:55:14;;;;;;;4.95;2.22;;;;;;;;;;4862678;29;20053;-61
2023/05/31 02:58:19;;;;;;;5.03;2.03;;;;;;;;;;4875667;29;20056;-65
2023/05/31 03:01:25;;;;;;;7.00;2.30;;;;;;;;;;4894884;29;20063;-62
2023/05/31 03:04:18;;;;;;;4.45;2.15;;;;;;;;;;4801425;29;20066;-62
2023/05/31 03:06:49;;;;;;;3.50;1.75;;;;;;;;;;4802447;29;21209;-62
2023/05/31 03:09:19;;;;;;;4.50;1.55;;;;;;;;;;4802538;29;20535;-64
2023/05/31 03:11:49;;;;;;;4.03;1.90;;;;;;;;;;4806130;29;20066;-62
2023/05/31 03:14:21;;;;;;;;;;;;;;;;;;4838887;29;20054;-62
2023/05/31 03:16:55;;;;;;;5.28;1.70;;;;;;;;;;4838429;29;19924;-64
2023/05/31 03:19:25;;;;;;;4.45;2.00;;;;;;;;;;4838754;29;20062;-61
2023/05/31 03:21:55;;;;;;;4.85;1.80;;;;;;;;;;4836718;29;20057;-63
2023/05/31 03:24:30;;;;;;;12.65;1.73;;;;;;;;;;4838971;29;20062;-62
2023/05/31 03:27:01;;;;;;;5.95;2.20;;;;;;;;;;4870351;29;20087;-62
2023/05/31 03:29:31;;;;;;;6.47;2.15;;;;;;;;;;4861426;29;20052;-62
2023/05/31 03:32:02;;;;;;;4.75;2.58;;;;;;;;;;4875337;29;20631;-62
2023/05/31 03:34:39;;;;;;;6.10;2.13;;;;;;;;;;4871318;29;20390;-62
2023/05/31 03:37:09;;;;;;;3.92;1.70;;;;;;;;;;4820003;29;20050;-65
2023/05/31 03:39:45;;;;;;;4.68;1.92;;;;;;;;;;4801812;29;20550;-62
2023/05/31 03:42:31;;;;;;;4.72;2.08;;;;;;;;;;4836367;29;20046;-61
2023/05/31 03:45:02;;;;;;;5.00;2.10;;;;;;;;;;4808194;29;20058;-64
2023/05/31 03:47:33;;;;;;;4.38;1.90;;;;;;;;;;4840625;29;20409;-64
2023/05/31 03:50:07;;;;;;;4.30;1.98;;;;;;;;;;4874892;29;20096;-61
2023/05/31 03:52:40;;;;;;;6.15;2.40;;;;;;;;;;4893568;29;20045;-61
2023/05/31 03:55:10;;;;;;;7.68;3.05;;;;;;;;;;4874446;29;20521;-65
2023/05/31 03:57:40;;;;;;;6.03;2.10;;;;;;;;;;4889804;29;20083;-64
2023/05/31 04:00:11;;;;;;;5.80;2.22;;;;;;;;;;4861067;29;20058;-62
2023/05/31 04:02:42;;;;;;;4.32;2.30;;;;;;;;;;4831226;29;20404;-62
2023/05/31 04:05:32;;;;;;;4.93;2.17;;;;;;;;;;4853566;29;20057;-62
2023/05/31 04:08:02;;;;;;;3.67;1.92;;;;;;;;;;4903418;29;20057;-62
2023/05/31 04:10:33;;;;;;;6.85;2.38;;;;;;;;;;4878052;29;20054;-62
2023/05/31 04:13:04;;;;;;;7.35;2.08;;;;;;;;;;4903954;29;20057;-62
2023/05/31 04:15:37;;;;;;;5.43;1.75;;;;;;;;;;4881215;29;20057;-62
2023/05/31 04:18:08;;;;;;;3.60;1.67;;;;;;;;;;4874513;29;20057;-61
2023/05/31 04:20:38;;;;;;;5.30;2.05;;;;;;;;;;4859257;29;20514;-62
2023/05/31 04:23:09;;;;;;;5.75;1.88;;;;;;;;;;4874518;29;20053;-62
2023/05/31 04:25:40;;;;;;;5.20;2.00;;;;;;;;;;4843905;29;20065;-63
2023/05/31 04:28:11;;;;;;;6.65;2.33;;;;;;;;;;4837906;29;20070;-62
2023/05/31 04:30:44;;;;;;;4.63;2.03;;;;;;;;;;4806982;29;20550;-63
2023/05/31 04:33:17;;;;;;;4.05;1.88;;;;;;;;;;4849893;29;20174;-62
2023/05/31 04:35:49;;;;;;;5.13;1.90;;;;;;;;;;4885782;29;20511;-62
2023/05/31 04:38:22;;;;;;;5.57;1.92;;;;;;;;;;4849460;29;20388;-62
2023/05/31 04:40:54;;;;;;;4.80;2.10;;;;;;;;;;4862618;29;20057;-61
2023/05/31 04:43:27;;;;;;;7.40;2.20;;;;;;;;;;4848816;29;20073;-62
2023/05/31 04:46:00;;;;;;;5.70;1.90;;;;;;;;;;4859423;29;20057;-62
2023/05/31 04:48:32;;;;;;;5.20;1.67;;;;;;;;;;4877796;29;20053;-62
2023/05/31 04:51:04;;;;;;;12.43;2.05;;;;;;;;;;4840114;29;20517;-63
2023/05/31 04:53:35;;;;;;;9.45;2.20;;;;;;;;;;4878148;29;20052;-64
2023/05/31 04:56:07;;;;;;;5.47;2.70;;;;;;;;;;4881776;29;20052;-62
2023/05/31 04:58:39;;;;;;;4.20;2.10;;;;;;;;;;4915681;29;20055;-63
2023/05/31 05:01:14;;;;;;;7.55;2.30;;;;;;;;;;4946292;28;20063;-62
2023/05/31 05:03:56;;;;;;;4.45;2.25;;;;;;;;;;4920137;29;20052;-62
2023/05/31 05:06:28;;;;;;;6.65;2.67;;;;;;;;;;4915082;29;20056;-63
2023/05/31 05:09:00;;;;;;;3.92;1.80;;;;;;;;;;4887029;29;20076;-62
2023/05/31 05:11:32;;;;;;;6.47;2.03;;;;;;;;;;4824140;29;20053;-62
2023/05/31 05:14:02;;;;;;;7.55;2.45;;;;;;;;;;4831946;29;20050;-62
2023/05/31 05:16:32;;;;;;;5.85;2.28;;;;;;;;;;4815444;29;20059;-62
2023/05/31 05:19:04;;;;;;;16.10;3.20;;;;;;;;;;4822084;29;20433;-62
2023/05/31 05:21:37;;;;;;;7.40;2.28;;;;;;;;;;4845780;29;20058;-62
2023/05/31 05:24:09;;;;;;;4.70;2.08;;;;;;;;;;4812255;29;20754;-62
2023/05/31 05:26:39;;;;;;;5.20;2.47;;;;;;;;;;4855690;29;20498;-62
2023/05/31 05:29:09;;;;;;;6.75;2.33;;;;;;;;;;4815994;29;20066;-64
2023/05/31 05:31:40;;;;;;;7.45;2.35;;;;;;;;;;4852300;29;20060;-62
2023/05/31 05:34:10;;;;;;;4.75;2.05;;;;;;;;;;4820175;29;20054;-61
2023/05/31 05:36:41;;;;;;;7.68;2.40;;;;;;;;;;4810168;29;20055;-61
2023/05/31 05:39:11;;;;;;;5.13;2.45;;;;;;;;;;4808410;29;20054;-61
2023/05/31 05:41:42;;;;;;;5.85;2.47;;;;;;;;;;4821692;29;20057;-62
2023/05/31 05:44:12;;;;;;;7.10;2.30;;;;;;;;;;4821355;29;20085;-61
2023/05/31 05:46:43;;;;;;;6.85;2.20;;;;;;;;;;4821554;29;20055;-63
2023/05/31 05:49:14;;;;;;;6.38;2.28;;;;;;;;;;4830763;29;20051;-62
2023/05/31 05:51:48;;;;;;;6.18;2.20;;;;;;;;;;4829822;29;20049;-62
2023/05/31 05:54:18;;;;;;;6.28;2.40;;;;;;;;;;4818362;29;20474;-61
2023/05/31 05:56:50;;;;;;;6.05;2.58;;;;;;;;;;4755047;30;20056;-62
2023/05/31 05:59:21;;;;;;;6.47;2.20;;;;;;;;;;4803270;29;20066;-62
2023/05/31 06:02:00;;;;;;;6.60;1.90;;;;;;;;;;4785493;29;20054;-62
2023/05/31 06:04:31;;;;;;;6.70;2.25;;;;;;;;;;4811348;29;20050;-61
2023/05/31 06:07:02;;;;;;;4.53;2.20;;;;;;;;;;4785304;30;20632;-62
2023/05/31 06:09:32;;;;;;;5.55;2.70;;;;;;;;;;4775203;30;20067;-62
2023/05/31 06:12:03;;;;;;;4.63;2.10;;;;;;;;;;4749511;30;20429;-62
2023/05/31 06:14:36;;;;;;;4.63;2.20;;;;;;;;;;4756834;30;20056;-62
2023/05/31 06:17:07;;;;;;;6.55;2.50;;;;;;;;;;4735833;30;20061;-62
2023/05/31 06:19:37;;;;;;;5.15;2.33;;;;;;;;;;4743733;30;20056;-62
2023/05/31 06:22:08;;;;;;;6.35;2.30;;;;;;;;;;4731675;30;20526;-64
2023/05/31 06:24:41;;;;;;;5.35;2.25;;;;;;;;;;4759557;30;20051;-63
2023/05/31 06:27:12;;;;;;;5.32;2.15;;;;;;;;;;4745590;30;20624;-62
2023/05/31 06:29:45;;;;;;;4.50;2.17;;;;;;;;;;4797764;29;20443;-62
2023/05/31 06:32:36;;;;;;;8.73;2.72;;;;;;;;;;4842862;29;20417;-61
2023/05/31 06:35:07;;;;;;;;;;;;;;;;;;4858223;29;20058;-61
2023/05/31 06:37:39;;;;;;;6.28;2.08;;;;;;;;;;4838987;29;19924;-62
2023/05/31 06:40:11;;;;;;;4.15;1.65;;;;;;;;;;4820933;29;20081;-62
2023/05/31 06:42:41;;;;;;;7.97;2.10;;;;;;;;;;4826642;29;20170;-62
2023/05/31 06:45:27;;;;;;;4.13;2.00;;;;;;;;;;4833916;29;20062;-62
2023/05/31 06:48:26;;;;;;;6.75;2.45;;;;;;;;;;4842968;29;20070;-62
2023/05/31 06:50:56;;;;;;;4.78;2.25;;;;;;;;;;4839117;29;20076;-62
2023/05/31 06:53:45;;;;;;;4.60;2.53;;;;;;;;;;4822660;29;20058;-62
2023/05/31 06:56:22;;;;;;;6.18;2.50;;;;;;;;;;4838836;29;21067;-62
2023/05/31 06:58:52;;;;;;;6.68;2.67;;;;;;;;;;4853184;29;20419;-62
2023/05/31 07:01:25;;;;;;;6.68;2.10;;;;;;;;;;4905936;29;20062;-63
2023/05/31 07:03:58;;;;;;;4.93;2.40;;;;;;;;;;4894543;29;20560;-63
2023/05/31 07:06:29;;;;;;;6.10;2.50;;;;;;;;;;4863193;29;20045;-62
2023/05/31 07:08:59;;;;;;;7.35;2.50;;;;;;;;;;4913489;29;20052;-62
2023/05/31 07:11:46;;;;;;;5.35;2.65;;;;;;;;;;4892610;29;20049;-64
2023/05/31 07:14:18;;;;;;;4.30;2.00;;;;;;;;;;4874370;29;20056;-62
2023/05/31 07:16:48;;;;;;;4.85;2.03;;;;;;;;;;4841703;29;20179;-62
2023/05/31 07:19:19;;;;;;;4.35;2.10;;;;;;;;;;4892882;29;20056;-63
2023/05/31 07:21:49;;;;;;;5.60;2.13;;;;;;;;;;4893834;29;20051;-62
2023/05/31 07:24:20;;;;;;;10.07;2.58;;;;;;;;;;4894385;29;20556;-63
2023/05/31 07:26:50;;;;;;;6.55;2.40;;;;;;;;;;4890381;29;20064;-62
2023/05/31 07:29:20;;;;;;;5.95;2.58;;;;;;;;;;4875633;29;20060;-62
2023/05/31 07:31:50;;;;;;;5.68;2.58;;;;;;;;;;4875374;29;20068;-62
2023/05/31 07:34:20;;;;;;;4.72;2.50;;;;;;;;;;4875379;29;20763;-62
2023/05/31 07:36:51;;;;;;;4.63;1.90;;;;;;;;;;4863564;29;20486;-63
2023/05/31 07:39:24;;;;;;;4.55;2.00;;;;;;;;;;4893766;29;20056;-62
2023/05/31 07:41:54;;;;;;;6.45;2.60;;;;;;;;;;4917050;29;20055;-63
2023/05/31 07:44:25;;;;;;;7.88;2.40;;;;;;;;;;4930588;29;20066;-62
2023/05/31 07:46:55;;;;;;;8.73;3.05;;;;;;;;;;4904839;29;20067;-62
2023/05/31 07:49:25;;;;;;;13.02;3.35;;;;;;;;;;4944297;29;20508;-62
2023/05/31 07:51:57;;;;;;;5.70;2.20;;;;;;;;;;4913025;29;20052;-62
2023/05/31 07:54:31;;;;;;;7.75;2.65;;;;;;;;;;4912774;29;20076;-62
2023/05/31 07:57:01;;;;;;;6.00;2.30;;;;;;;;;;4881566;29;20079;-61
2023/05/31 07:59:31;;;;;;;8.32;2.65;;;;;;;;;;4933025;29;20504;-62
2023/05/31 08:02:04;;;;;;;10.07;2.50;;;;;;;;;;4966763;28;20051;-62
2023/05/31 08:04:34;;;;;;;12.85;3.40;;;;;;;;;;4983029;28;20062;-62
2023/05/31 08:07:06;;;;;;;12.25;2.88;;;;;;;;;;4918865;29;20074;-62
2023/05/31 08:09:36;;;;;;;10.23;2.80;;;;;;;;;;4923262;28;20063;-62
2023/05/31 08:12:07;;;;;;;9.40;2.63;;;;;;;;;;4957003;28;20518;-62
2023/05/31 08:14:37;;;;;;;10.55;2.38;;;;;;;;;;4957282;28;20466;-62
2023/05/31 08:17:07;;;;;;;6.45;2.80;;;;;;;;;;4989538;28;20390;-62
2023/05/31 08:19:38;;;;;;;7.90;2.10;;;;;;;;;;4989562;28;20049;-62
2023/05/31 08:22:08;;;;;;;7.47;2.58;;;;;;;;;;4989271;28;20058;-62
2023/05/31 08:24:38;;;;;;;13.32;2.50;;;;;;;;;;4972981;28;20533;-62
2023/05/31 08:27:08;;;;;;;5.97;2.58;;;;;;;;;;4969061;28;20517;-62
2023/05/31 08:29:40;;;;;;;10.00;2.80;;;;;;;;;;5031044;28;20046;-62
2023/05/31 08:32:10;;;;;;;7.60;2.47;;;;;;;;;;5031010;28;20493;-62
2023/05/31 08:34:44;;;;;;;7.32;3.00;;;;;;;;;;5028926;28;20068;-62
2023/05/31 08:37:15;;;;;;;8.02;2.88;;;;;;;;;;5017775;28;20067;-62
2023/05/31 08:39:46;;;;;;;7.13;2.60;;;;;;;;;;5048753;28;20061;-62
2023/05/31 08:42:34;;;;;;;6.45;2.88;;;;;;;;;;5031943;28;20060;-62
2023/05/31 08:45:05;;;;;;;13.35;2.90;;;;;;;;;;5050785;28;20056;-64
2023/05/31 08:48:07;;;;;;;10.43;3.63;;;;;;;;;;5015650;28;20156;-62
2023/05/31 08:50:38;;;;;;;14.55;3.15;;;;;;;;;;5049852;28;20049;-62
2023/05/31 08:53:09;;;;;;;12.35;3.05;;;;;;;;;;5031872;28;20053;-62
2023/05/31 08:55:40;;;;;;;10.98;2.70;;;;;;;;;;5050615;28;20060;-62
2023/05/31 08:58:10;;;;;;;6.00;3.00;;;;;;;;;;5008274;28;20049;-62
2023/05/31 09:00:41;;;;;;;11.40;3.00;;;;;;;;;;5008535;28;20073;-62
2023/05/31 09:03:11;;;;;;;11.38;2.72;;;;;;;;;;4988596;28;20534;-62
2023/05/31 09:05:42;;;;;;;21.80;3.30;;;;;;;;;;4973018;28;20065;-63
2023/05/31 09:08:13;;;;;;;14.43;3.20;;;;;;;;;;4988727;28;20506;-62
2023/05/31 09:10:43;;;;;;;7.32;3.33;;;;;;;;;;4956792;28;20062;-62
2023/05/31 09:13:14;;;;;;;9.77;3.15;;;;;;;;;;4988938;28;20042;-63
2023/05/31 09:15:45;;;;;;;12.93;3.05;;;;;;;;;;4988854;28;20046;-61
2023/05/31 09:18:19;;;;;;;8.35;3.17;;;;;;;;;;4988681;28;20054;-62
2023/05/31 09:20:55;;;;;;;10.80;3.15;;;;;;;;;;4957602;28;20503;-62
2023/05/31 09:23:26;;;;;;;8.10;3.55;;;;;;;;;;4992262;28;20062;-62
2023/05/31 09:25:56;;;;;;;8.82;3.05;;;;;;;;;;4953501;29;20070;-62
2023/05/31 09:28:26;;;;;;;7.05;3.45;;;;;;;;;;4906016;29;20059;-62
2023/05/31 09:31:05;;;;;;;8.48;2.83;;;;;;;;;;4921689;29;20047;-62
2023/05/31 09:33:42;;;;;;;6.85;3.30;;;;;;;;;;4953217;29;20055;-62
2023/05/31 09:36:13;;;;;;;8.10;3.60;;;;;;;;;;4966230;28;20506;-62
2023/05/31 09:38:44;;;;;;;6.97;3.30;;;;;;;;;;4972257;28;20058;-62
2023/05/31 09:41:19;;;;;;;8.18;3.53;;;;;;;;;;4937174;28;20050;-67
2023/05/31 09:43:50;;;;;;;11.38;3.80;;;;;;;;;;4976235;28;20057;-63
2023/05/31 09:46:22;;;;;;;9.95;3.22;;;;;;;;;;4991985;28;20077;-61
2023/05/31 09:49:03;;;;;;;7.82;3.55;;;;;;;;;;4943576;28;20062;-63
2023/05/31 09:51:34;;;;;;;9.45;3.33;;;;;;;;;;4991043;28;20387;-63
2023/05/31 09:54:17;;;;;;;9.57;3.13;;;;;;;;;;5022664;28;20057;-62
2023/05/31 09:56:47;;;;;;;8.23;3.10;;;;;;;;;;5011261;28;20160;-62
2023/05/31 09:59:18;;;;;;;9.70;3.42;;;;;;;;;;5011254;28;20057;-63
2023/05/31 10:01:50;;;;;;;9.23;3.45;;;;;;;;;;5011025;28;20058;-62
2023/05/31 10:04:20;;;;;;;11.90;3.63;;;;;;;;;;4962361;28;20062;-62
2023/05/31 10:06:51;;;;;;;7.38;3.95;;;;;;;;;;5007289;28;20442;-62
2023/05/31 10:09:22;;;;;;;7.82;3.10;;;;;;;;;;4991445;28;20062;-62
2023/05/31 10:11:55;;;;;;;9.77;3.38;;;;;;;;;;5021100;28;20061;-62
2023/05/31 10:14:30;;;;;;;5.93;2.80;;;;;;;;;;5030501;28;20069;-61
2023/05/31 10:17:02;;;;;;;9.10;3.85;;;;;;;;;;4981010;28;20548;-62
2023/05/31 10:19:44;;;;;;;9.75;4.50;;;;;;;;;;4981334;28;20069;-64
2023/05/31 10:22:17;;;;;;;7.28;3.60;;;;;;;;;;4993961;28;20045;-62
2023/05/31 10:24:52;;;;;;;8.45;3.70;;;;;;;;;;5030396;28;20054;-62
2023/05/31 10:27:22;;;;;;;9.77;3.85;;;;;;;;;;4997374;28;20095;-62
2023/05/31 10:30:04;;;;;;;12.45;4.50;;;;;;;;;;5013605;28;20506;-62
2023/05/31 10:32:43;;;;;;;8.13;3.83;;;;;;;;;;5029414;28;20060;-62
2023/05/31 10:35:14;;;;;;;12.00;4.70;;;;;;;;;;4990305;28;20058;-63
2023/05/31 10:37:45;;;;;;;10.10;4.53;;;;;;;;;;4980677;28;20059;-61
2023/05/31 10:40:30;;;;;;;8.95;3.88;;;;;;;;;;4975577;28;20050;-61
2023/05/31 10:43:08;;;;;;;11.45;3.95;;;;;;;;;;4981409;28;20043;-61
2023/05/31 10:45:54;;;;;;;12.43;4.68;;;;;;;;;;4965354;28;20050;-61
2023/05/31 10:48:29;;;;;;;10.13;4.68;;;;;;;;;;4980999;28;20055;-63
2023/05/31 10:51:02;;;;;;;11.52;4.43;;;;;;;;;;4967249;28;20062;-62
2023/05/31 10:53:45;;;;;;;12.13;4.57;;;;;;;;;;4995748;28;20053;-63
2023/05/31 10:56:19;;;;;;;11.13;4.40;;;;;;;;;;4977692;28;20068;-63
2023/05/31 10:58:53;;;;;;;8.85;4.65;;;;;;;;;;5009879;28;20093;-62
2023/05/31 11:01:29;;;;;;;9.15;4.25;;;;;;;;;;4993498;28;20049;-62
2023/05/31 11:04:01;;;;;;;10.98;4.40;;;;;;;;;;5009436;28;20042;-62
2023/05/31 11:06:36;;;;;;;8.65;3.92;;;;;;;;;;5009747;28;20053;-62
2023/05/31 11:09:16;;;;;;;7.03;3.40;;;;;;;;;;5009840;28;20050;-62
2023/05/31 11:11:50;;;;;;;7.40;3.88;;;;;;;;;;4996499;28;20074;-63
2023/05/31 11:14:31;;;;;;;8.07;3.83;;;;;;;;;;5071783;28;20044;-61
2023/05/31 11:17:05;;;;;;;9.05;4.18;;;;;;;;;;5042192;28;20365;-62
2023/05/31 11:19:37;;;;;;;10.48;4.72;;;;;;;;;;5079915;28;20365;-62
2023/05/31 11:22:08;;;;;;;9.70;4.22;;;;;;;;;;5046318;28;20049;-60
2023/05/31 11:24:50;;;;;;;10.07;5.07;;;;;;;;;;5029101;28;20512;-64
2023/05/31 11:27:22;;;;;;;12.38;4.43;;;;;;;;;;5062103;28;20064;-62
2023/05/31 11:29:52;;;;;;;10.45;5.32;;;;;;;;;;5081414;28;20044;-62
2023/05/31 11:32:43;;;;;;;14.10;5.28;;;;;;;;;;5081634;28;20052;-63
2023/05/31 11:35:16;;;;;;;11.70;4.82;;;;;;;;;;5080930;28;20153;-62
2023/05/31 11:37:48;;;;;;;11.00;4.68;;;;;;;;;;5080879;28;20060;-61
2023/05/31 11:40:19;;;;;;;10.38;4.30;;;;;;;;;;5080110;28;20052;-63
2023/05/31 11:42:50;;;;;;;8.98;3.97;;;;;;;;;;5079428;28;20083;-63
2023/05/31 11:45:25;;;;;;;11.93;4.45;;;;;;;;;;5028533;28;20640;-62
2023/05/31 11:48:07;;;;;;;9.70;4.55;;;;;;;;;;5045935;28;20050;-62
2023/05/31 11:50:38;;;;;;;8.02;4.28;;;;;;;;;;5060320;28;20051;-62
2023/05/31 11:53:11;;;;;;;9.10;4.50;;;;;;;;;;4986071;28;20047;-62
2023/05/31 11:55:51;;;;;;;11.23;4.30;;;;;;;;;;5036118;28;20053;-63
2023/05/31 11:58:22;;;;;;;14.80;4.28;;;;;;;;;;5035537;28;20044;-62
2023/05/31 12:00:57;;;;;;;9.65;3.88;;;;;;;;;;5036961;28;20120;-62
2023/05/31 12:03:28;;;;;;;10.05;3.97;;;;;;;;;;5053735;28;20048;-62
2023/05/31 12:06:02;;;;;;;10.38;4.15;;;;;;;;;;5035721;28;20067;-63
2023/05/31 12:08:32;;;;;;;8.57;3.83;;;;;;;;;;5079651;28;20047;-62
2023/05/31 12:11:03;;;;;;;7.75;3.85;;;;;;;;;;5012948;28;20051;-63
2023/05/31 12:13:37;;;;;;;8.13;4.13;;;;;;;;;;5024535;28;20056;-62
2023/05/31 12:16:07;;;;;;;10.57;4.28;;;;;;;;;;5022712;28;20055;-62
2023/05/31 12:18:38;;;;;;;10.30;4.53;;;;;;;;;;5081595;28;20044;-62
2023/05/31 12:21:15;;;;;;;11.07;4.40;;;;;;;;;;5021886;28;20055;-63
2023/05/31 12:23:58;;;;;;;7.47;3.80;;;;;;;;;;5091013;28;20044;-62
2023/05/31 12:26:28;;;;;;;9.07;5.05;;;;;;;;;;5091095;28;20380;-62
2023/05/31 12:28:58;;;;;;;9.75;4.03;;;;;;;;;;5038940;28;20499;-62
2023/05/31 12:31:32;;;;;;;7.22;4.32;;;;;;;;;;5072508;28;20385;-62
2023/05/31 12:34:05;;;;;;;8.60;4.20;;;;;;;;;;5080219;28;20048;-62
2023/05/31 12:36:42;;;;;;;7.70;4.18;;;;;;;;;;5060507;28;20060;-62
2023/05/31 12:39:24;;;;;;;9.55;4.28;;;;;;;;;;5035447;28;20043;-62
2023/05/31 12:41:54;;;;;;;18.20;6.00;;;;;;;;;;5035145;28;20491;-62
2023/05/31 12:44:26;;;;;;;9.73;4.90;;;;;;;;;;5080553;28;20495;-62
2023/05/31 12:47:04;;;;;;;7.95;4.20;;;;;;;;;;5081839;28;20365;-62
2023/05/31 12:49:37;;;;;;;12.13;5.45;;;;;;;;;;5044705;28;20051;-63
2023/05/31 12:52:07;;;;;;;;;;;;;;;;;;5081472;28;20039;-61
2023/05/31 12:54:39;;;;;;;7.65;4.75;;;;;;;;;;5085512;28;19927;-62
2023/05/31 12:57:10;;;;;;;5.78;3.03;;;;;;;;;;5058094;28;20508;-64
2023/05/31 12:59:41;;;;;;;6.45;2.85;;;;;;;;;;5076244;28;20059;-62
2023/05/31 13:02:11;;;;;;;5.15;2.30;;;;;;;;;;5042275;28;20519;-62
2023/05/31 13:04:42;;;;;;;6.85;2.20;;;;;;;;;;5094667;28;20055;-61
2023/05/31 13:07:13;;;;;;;9.30;4.65;;;;;;;;;;5094437;28;20036;-62
2023/05/31 13:09:43;;;;;;;4.63;2.65;;;;;;;;;;5091411;28;20415;-62
2023/05/31 13:12:14;;;;;;;5.32;2.70;;;;;;;;;;5020212;28;20055;-62
2023/05/31 13:14:44;;;;;;;5.35;2.75;;;;;;;;;;5094571;28;20137;-62
2023/05/31 13:17:15;;;;;;;8.50;3.70;;;;;;;;;;5059397;28;20056;-62
2023/05/31 13:19:45;;;;;;;7.88;3.85;;;;;;;;;;5018594;28;20056;-63
2023/05/31 13:22:34;;;;;;;13.25;6.00;;;;;;;;;;5064880;28;20063;-62
2023/05/31 13:25:05;;;;;;;16.10;7.43;;;;;;;;;;5058182;28;20044;-62
2023/05/31 13:27:36;;;;;;;7.88;4.03;;;;;;;;;;5055979;28;20063;-64
2023/05/31 13:30:07;;;;;;;7.22;3.72;;;;;;;;;;5088447;28;20047;-62
2023/05/31 13:32:38;;;;;;;7.78;3.50;;;;;;;;;;5026796;28;20056;-62
2023/05/31 13:35:09;;;;;;;6.13;3.47;;;;;;;;;;5057152;28;20066;-63
2023/05/31 13:37:40;;;;;;;7.90;4.78;;;;;;;;;;5061985;28;20056;-63
2023/05/31 13:40:10;;;;;;;9.98;4.35;;;;;;;;;;5073674;28;20412;-62
2023/05/31 13:42:41;;;;;;;8.98;4.72;;;;;;;;;;5050879;28;20072;-62
2023/05/31 13:45:11;;;;;;;11.02;4.05;;;;;;;;;;5050813;28;20053;-62
2023/05/31 13:47:41;;;;;;;7.90;3.63;;;;;;;;;;5002830;28;20052;-62
2023/05/31 13:50:11;;;;;;;6.25;2.88;;;;;;;;;;5012849;28;20508;-62
2023/05/31 13:52:41;;;;;;;6.13;2.75;;;;;;;;;;5070824;28;20392;-62
2023/05/31 13:55:12;;;;;;;7.03;2.75;;;;;;;;;;5054518;28;20057;-61
2023/05/31 13:57:42;;;;;;;6.43;2.53;;;;;;;;;;5067995;28;20044;-62
2023/05/31 14:00:12;;;;;;;7.18;2.88;;;;;;;;;;5061210;28;20060;-62
2023/05/31 14:02:44;;;;;;;5.22;2.70;;;;;;;;;;5070738;28;20041;-62
2023/05/31 14:05:14;;;;;;;4.32;2.20;;;;;;;;;;5055994;28;20045;-62
2023/05/31 14:07:45;;;;;;;4.85;2.78;;;;;;;;;;5061718;28;20063;-63
2023/05/31 14:10:15;;;;;;;5.80;2.53;;;;;;;;;;5052974;28;20041;-63
2023/05/31 14:12:47;;;;;;;6.35;2.22;;;;;;;;;;5062835;28;20401;-63
2023/05/31 14:15:18;;;;;;;8.70;2.70;;;;;;;;;;5064611;28;20041;-62
2023/05/31 14:17:48;;;;;;;8.18;2.35;;;;;;;;;;5070523;28;20408;-63
2023/05/31 14:20:18;;;;;;;4.47;2.40;;;;;;;;;;5081515;28;20052;-63
2023/05/31 14:22:49;;;;;;;4.30;2.03;;;;;;;;;;5073890;28;20059;-62
2023/05/31 14:25:19;;;;;;;5.32;2.30;;;;;;;;;;5093004;28;20036;-62
2023/05/31 14:27:49;;;;;;;6.10;2.10;;;;;;;;;;5057481;28;20048;-62
2023/05/31 14:30:19;;;;;;;4.22;2.30;;;;;;;;;;5057460;28;20063;-62
2023/05/31 14:32:49;;;;;;;5.00;2.30;;;;;;;;;;5092519;28;20391;-62
2023/05/31 14:35:20;;;;;;;3.20;1.90;;;;;;;;;;5092909;28;20509;-63
2023/05/31 14:37:51;;;;;;;5.72;1.90;;;;;;;;;;5040387;28;20051;-62
2023/05/31 14:40:40;;;;;;;5.50;1.70;;;;;;;;;;5092839;28;20044;-63
2023/05/31 14:43:11;;;;;;;3.53;1.95;;;;;;;;;;5080914;28;20040;-62
2023/05/31 14:45:41;;;;;;;4.13;1.90;;;;;;;;;;5042283;28;20512;-63
2023/05/31 14:48:11;;;;;;;2.78;1.60;;;;;;;;;;5038930;28;20692;-63
2023/05/31 14:50:41;;;;;;;4.43;1.75;;;;;;;;;;5080156;28;20040;-62
2023/05/31 14:53:13;;;;;;;3.50;1.88;;;;;;;;;;5064619;28;20055;-63
2023/05/31 14:55:44;;;;;;;3.08;1.80;;;;;;;;;;5041536;28;20056;-62
2023/05/31 14:58:14;;;;;;;3.08;1.13;;;;;;;;;;5092540;28;20051;-63
2023/05/31 15:00:45;;;;;;;1.65;1.23;;;;;;;;;;5057919;28;20614;-62
2023/05/31 15:03:15;;;;;;;2.25;1.20;;;;;;;;;;5073221;28;20056;-62
2023/05/31 15:05:45;;;;;;;1.55;1.13;;;;;;;;;;5056443;28;20056;-63
2023/05/31 15:08:15;;;;;;;2.90;1.15;;;;;;;;;;5092245;28;20048;-62
2023/05/31 15:10:46;;;;;;;1.83;0.93;;;;;;;;;;5021184;28;20052;-62
2023/05/31 15:13:16;;;;;;;1.58;0.90;;;;;;;;;;5020742;28;20057;-63
2023/05/31 15:15:46;;;;;;;2.90;0.95;;;;;;;;;;5014114;28;20065;-63
2023/05/31 15:18:16;;;;;;;1.90;1.10;;;;;;;;;;4995295;28;20057;-64